sensor_id;sensor_type;location;lat;lon;timestamp;pressure;altitude;pressure_sealevel;temperature;humidity
48517;BME280;34310;51.904;4.256;2022-12-18T00:01:49;102779.53;;;16.90;50.73
48517;BME280;34310;51.904;4.256;2022-12-18T00:04:21;102791.69;;;16.90;50.62
48517;BME280;34310;51.904;4.256;2022-12-18T00:06:50;102788.94;;;16.88;50.68
48517;BME280;34310;51.904;4.256;2022-12-18T00:09:17;102783.63;;;16.87;50.63
48517;BME280;34310;51.904;4.256;2022-12-18T00:11:44;102791.22;;;16.84;50.78
48517;BME280;34310;51.904;4.256;2022-12-18T00:14:13;102786.69;;;16.81;50.32
48517;BME280;34310;51.904;4.256;2022-12-18T00:16:44;102793.38;;;16.78;50.51
48517;BME280;34310;51.904;4.256;2022-12-18T00:19:12;102792.19;;;16.74;50.50
48517;BME280;34310;51.904;4.256;2022-12-18T00:21:40;102796.25;;;16.70;50.47
48517;BME280;34310;51.904;4.256;2022-12-18T00:24:08;102789.00;;;16.66;50.27
48517;BME280;34310;51.904;4.256;2022-12-18T00:26:37;102789.53;;;16.62;50.51
48517;BME280;34310;51.904;4.256;2022-12-18T00:29:12;102790.63;;;16.54;50.24
48517;BME280;34310;51.904;4.256;2022-12-18T00:31:41;102790.28;;;16.50;50.42
48517;BME280;34310;51.904;4.256;2022-12-18T00:34:11;102797.84;;;16.47;50.32
48517;BME280;34310;51.904;4.256;2022-12-18T00:36:39;102795.66;;;16.41;50.39
48517;BME280;34310;51.904;4.256;2022-12-18T00:39:07;102801.56;;;16.38;50.40
48517;BME280;34310;51.904;4.256;2022-12-18T00:49:50;102794.41;;;16.14;50.46
48517;BME280;34310;51.904;4.256;2022-12-18T00:52:17;102795.50;;;16.06;50.71
48517;BME280;34310;51.904;4.256;2022-12-18T00:54:44;102808.16;;;16.01;50.84
48517;BME280;34310;51.904;4.256;2022-12-18T00:57:11;102805.19;;;15.97;50.96
48517;BME280;34310;51.904;4.256;2022-12-18T00:59:39;102804.56;;;15.89;50.88
48517;BME280;34310;51.904;4.256;2022-12-18T01:02:06;102806.00;;;15.86;50.99
48517;BME280;34310;51.904;4.256;2022-12-18T01:04:33;102806.44;;;15.80;51.00
48517;BME280;34310;51.904;4.256;2022-12-18T01:07:01;102814.66;;;15.74;51.31
48517;BME280;34310;51.904;4.256;2022-12-18T01:12:00;102821.84;;;15.67;51.38
48517;BME280;34310;51.904;4.256;2022-12-18T01:14:27;102819.00;;;15.64;51.40
48517;BME280;34310;51.904;4.256;2022-12-18T01:16:54;102820.91;;;15.56;51.43
48517;BME280;34310;51.904;4.256;2022-12-18T01:19:22;102811.03;;;15.52;51.43
48517;BME280;34310;51.904;4.256;2022-12-18T01:21:49;102816.78;;;15.48;51.73
48517;BME280;34310;51.904;4.256;2022-12-18T01:24:16;102819.81;;;15.42;51.66
48517;BME280;34310;51.904;4.256;2022-12-18T01:26:43;102818.78;;;15.40;51.81
48517;BME280;34310;51.904;4.256;2022-12-18T01:29:11;102809.56;;;15.34;51.80
48517;BME280;34310;51.904;4.256;2022-12-18T01:31:38;102805.63;;;15.29;51.92
48517;BME280;34310;51.904;4.256;2022-12-18T01:34:05;102805.66;;;15.18;52.17
48517;BME280;34310;51.904;4.256;2022-12-18T01:36:35;102803.59;;;15.14;52.22
48517;BME280;34310;51.904;4.256;2022-12-18T01:39:09;102800.84;;;15.13;52.22
48517;BME280;34310;51.904;4.256;2022-12-18T01:41:37;102807.13;;;15.05;52.31
48517;BME280;34310;51.904;4.256;2022-12-18T01:52:58;102836.38;;;14.82;52.80
48517;BME280;34310;51.904;4.256;2022-12-18T01:55:31;102837.16;;;14.81;52.70
48517;BME280;34310;51.904;4.256;2022-12-18T01:58:00;102839.50;;;14.78;52.81
48517;BME280;34310;51.904;4.256;2022-12-18T02:00:28;102829.59;;;14.74;52.85
48517;BME280;34310;51.904;4.256;2022-12-18T02:02:56;102827.50;;;14.70;52.91
48517;BME280;34310;51.904;4.256;2022-12-18T02:08:21;102813.22;;;14.65;52.97
48517;BME280;34310;51.904;4.256;2022-12-18T02:11:06;102811.78;;;14.58;53.13
48517;BME280;34310;51.904;4.256;2022-12-18T02:16:24;102823.88;;;14.57;52.98
48517;BME280;34310;51.904;4.256;2022-12-18T02:19:00;102821.91;;;14.55;53.04
48517;BME280;34310;51.904;4.256;2022-12-18T02:21:42;102823.59;;;14.54;52.92
48517;BME280;34310;51.904;4.256;2022-12-18T02:26:59;102824.78;;;14.48;53.11
48517;BME280;34310;51.904;4.256;2022-12-18T02:29:51;102817.16;;;14.41;53.21
48517;BME280;34310;51.904;4.256;2022-12-18T02:32:34;102828.94;;;14.46;53.09
48517;BME280;34310;51.904;4.256;2022-12-18T02:35:04;102833.34;;;14.47;53.08
48517;BME280;34310;51.904;4.256;2022-12-18T02:37:33;102833.09;;;14.54;53.00
48517;BME280;34310;51.904;4.256;2022-12-18T02:40:04;102836.59;;;14.65;53.04
48517;BME280;34310;51.904;4.256;2022-12-18T02:42:32;102832.34;;;14.75;52.90
48517;BME280;34310;51.904;4.256;2022-12-18T02:45:00;102807.91;;;14.83;52.87
48517;BME280;34310;51.904;4.256;2022-12-18T02:47:33;102805.81;;;14.90;52.91
48517;BME280;34310;51.904;4.256;2022-12-18T02:50:34;102800.22;;;14.95;52.78
48517;BME280;34310;51.904;4.256;2022-12-18T02:53:22;102801.25;;;14.97;52.90
48517;BME280;34310;51.904;4.256;2022-12-18T02:55:54;102798.00;;;15.00;52.82
48517;BME280;34310;51.904;4.256;2022-12-18T03:03:59;102784.19;;;15.01;52.79
48517;BME280;34310;51.904;4.256;2022-12-18T03:06:40;102779.78;;;15.00;52.68
48517;BME280;34310;51.904;4.256;2022-12-18T03:09:15;102778.88;;;14.99;52.65
48517;BME280;34310;51.904;4.256;2022-12-18T03:11:54;102764.72;;;14.96;52.61
48517;BME280;34310;51.904;4.256;2022-12-18T03:14:43;102773.28;;;14.95;52.66
48517;BME280;34310;51.904;4.256;2022-12-18T03:17:15;102755.88;;;14.94;52.70
48517;BME280;34310;51.904;4.256;2022-12-18T03:19:44;102755.63;;;14.91;52.63
48517;BME280;34310;51.904;4.256;2022-12-18T03:22:14;102748.47;;;14.88;52.67
48517;BME280;34310;51.904;4.256;2022-12-18T03:24:43;102745.75;;;14.86;52.65
48517;BME280;34310;51.904;4.256;2022-12-18T03:27:14;102747.44;;;14.86;52.70
48517;BME280;34310;51.904;4.256;2022-12-18T03:30:04;102751.22;;;14.79;52.92
48517;BME280;34310;51.904;4.256;2022-12-18T03:33:09;102761.97;;;14.74;52.97
48517;BME280;34310;51.904;4.256;2022-12-18T03:35:41;102763.94;;;14.66;53.08
48517;BME280;34310;51.904;4.256;2022-12-18T03:38:10;102763.44;;;14.60;53.29
48517;BME280;34310;51.904;4.256;2022-12-18T03:43:39;102776.19;;;14.47;53.58
48517;BME280;34310;51.904;4.256;2022-12-18T03:46:35;102777.28;;;14.40;53.69
48517;BME280;34310;51.904;4.256;2022-12-18T03:49:35;102778.56;;;14.35;53.80
48517;BME280;34310;51.904;4.256;2022-12-18T03:52:09;102785.97;;;14.31;53.75
48517;BME280;34310;51.904;4.256;2022-12-18T03:54:39;102777.91;;;14.27;53.77
48517;BME280;34310;51.904;4.256;2022-12-18T03:57:16;102770.63;;;14.23;53.94
48517;BME280;34310;51.904;4.256;2022-12-18T03:59:46;102772.34;;;14.23;53.87
48517;BME280;34310;51.904;4.256;2022-12-18T04:02:17;102774.78;;;14.21;53.92
48517;BME280;34310;51.904;4.256;2022-12-18T04:04:47;102775.44;;;14.19;54.02
48517;BME280;34310;51.904;4.256;2022-12-18T04:07:16;102787.22;;;14.15;54.03
48517;BME280;34310;51.904;4.256;2022-12-18T04:09:46;102776.84;;;14.15;54.07
48517;BME280;34310;51.904;4.256;2022-12-18T04:12:15;102774.25;;;14.15;53.93
48517;BME280;34310;51.904;4.256;2022-12-18T04:14:42;102768.19;;;14.25;53.68
48517;BME280;34310;51.904;4.256;2022-12-18T04:17:10;102773.75;;;14.30;53.50
48517;BME280;34310;51.904;4.256;2022-12-18T04:19:38;102774.53;;;14.39;53.57
48517;BME280;34310;51.904;4.256;2022-12-18T04:22:08;102766.69;;;14.47;53.58
48517;BME280;34310;51.904;4.256;2022-12-18T04:24:36;102769.28;;;14.57;53.43
48517;BME280;34310;51.904;4.256;2022-12-18T04:27:04;102774.47;;;14.68;53.55
48517;BME280;34310;51.904;4.256;2022-12-18T04:29:32;102768.38;;;14.77;53.41
48517;BME280;34310;51.904;4.256;2022-12-18T04:31:59;102765.75;;;14.87;53.40
48517;BME280;34310;51.904;4.256;2022-12-18T04:34:27;102759.50;;;14.96;53.16
48517;BME280;34310;51.904;4.256;2022-12-18T04:36:54;102763.28;;;14.99;53.15
48517;BME280;34310;51.904;4.256;2022-12-18T04:39:22;102754.19;;;15.04;53.15
48517;BME280;34310;51.904;4.256;2022-12-18T04:41:49;102763.94;;;15.07;53.14
48517;BME280;34310;51.904;4.256;2022-12-18T04:44:16;102766.78;;;15.10;52.97
48517;BME280;34310;51.904;4.256;2022-12-18T04:46:44;102769.50;;;15.11;52.96
48517;BME280;34310;51.904;4.256;2022-12-18T04:49:11;102775.75;;;15.13;52.90
48517;BME280;34310;51.904;4.256;2022-12-18T04:51:39;102769.75;;;15.14;52.86
48517;BME280;34310;51.904;4.256;2022-12-18T04:54:06;102765.47;;;15.15;52.83
48517;BME280;34310;51.904;4.256;2022-12-18T04:56:34;102769.88;;;15.16;52.76
48517;BME280;34310;51.904;4.256;2022-12-18T04:59:01;102766.50;;;15.17;52.83
48517;BME280;34310;51.904;4.256;2022-12-18T05:01:28;102764.81;;;15.17;52.84
48517;BME280;34310;51.904;4.256;2022-12-18T05:04:01;102764.69;;;15.16;52.76
48517;BME280;34310;51.904;4.256;2022-12-18T05:06:29;102771.59;;;15.15;52.70
48517;BME280;34310;51.904;4.256;2022-12-18T05:08:56;102767.16;;;15.14;52.73
48517;BME280;34310;51.904;4.256;2022-12-18T05:11:24;102763.66;;;15.14;52.78
48517;BME280;34310;51.904;4.256;2022-12-18T05:13:51;102762.63;;;15.12;52.56
48517;BME280;34310;51.904;4.256;2022-12-18T05:16:18;102760.78;;;15.11;52.55
48517;BME280;34310;51.904;4.256;2022-12-18T05:18:46;102760.53;;;15.08;52.61
48517;BME280;34310;51.904;4.256;2022-12-18T05:21:13;102756.91;;;15.06;52.46
48517;BME280;34310;51.904;4.256;2022-12-18T05:23:40;102749.59;;;15.02;52.53
48517;BME280;34310;51.904;4.256;2022-12-18T05:26:09;102757.28;;;15.00;52.51
48517;BME280;34310;51.904;4.256;2022-12-18T05:28:41;102744.81;;;14.96;52.58
48517;BME280;34310;51.904;4.256;2022-12-18T05:31:08;102749.75;;;14.93;52.56
48517;BME280;34310;51.904;4.256;2022-12-18T05:33:35;102744.06;;;14.87;52.74
48517;BME280;34310;51.904;4.256;2022-12-18T05:36:06;102739.38;;;14.83;52.77
48517;BME280;34310;51.904;4.256;2022-12-18T05:38:35;102742.75;;;14.82;52.70
48517;BME280;34310;51.904;4.256;2022-12-18T05:41:03;102749.16;;;14.75;52.93
48517;BME280;34310;51.904;4.256;2022-12-18T05:43:30;102751.19;;;14.69;52.91
48517;BME280;34310;51.904;4.256;2022-12-18T05:46:01;102743.94;;;14.65;52.95
48517;BME280;34310;51.904;4.256;2022-12-18T05:48:29;102737.56;;;14.62;53.04
48517;BME280;34310;51.904;4.256;2022-12-18T05:51:07;102742.50;;;14.59;53.18
48517;BME280;34310;51.904;4.256;2022-12-18T05:53:36;102736.91;;;14.54;53.26
48517;BME280;34310;51.904;4.256;2022-12-18T05:56:06;102737.31;;;14.48;53.37
48517;BME280;34310;51.904;4.256;2022-12-18T05:58:35;102734.13;;;14.42;53.39
48517;BME280;34310;51.904;4.256;2022-12-18T06:03:38;102730.09;;;14.36;53.57
48517;BME280;34310;51.904;4.256;2022-12-18T06:06:33;102731.16;;;14.27;53.60
48517;BME280;34310;51.904;4.256;2022-12-18T06:09:00;102735.97;;;14.23;53.70
48517;BME280;34310;51.904;4.256;2022-12-18T06:11:28;102727.00;;;14.19;53.71
48517;BME280;34310;51.904;4.256;2022-12-18T06:13:56;102717.09;;;14.15;53.85
48517;BME280;34310;51.904;4.256;2022-12-18T06:16:27;102708.00;;;14.10;53.83
48517;BME280;34310;51.904;4.256;2022-12-18T06:18:58;102701.50;;;14.15;53.72
48517;BME280;34310;51.904;4.256;2022-12-18T06:21:28;102704.13;;;14.25;53.47
48517;BME280;34310;51.904;4.256;2022-12-18T06:23:56;102702.84;;;14.31;53.38
48517;BME280;34310;51.904;4.256;2022-12-18T06:26:24;102709.72;;;14.40;53.42
48517;BME280;34310;51.904;4.256;2022-12-18T06:28:54;102702.75;;;14.49;53.40
48517;BME280;34310;51.904;4.256;2022-12-18T06:31:22;102692.34;;;14.60;53.48
48517;BME280;34310;51.904;4.256;2022-12-18T06:33:49;102702.72;;;14.70;53.47
48517;BME280;34310;51.904;4.256;2022-12-18T06:36:17;102691.16;;;14.76;53.42
48517;BME280;34310;51.904;4.256;2022-12-18T06:38:44;102690.75;;;14.82;53.30
48517;BME280;34310;51.904;4.256;2022-12-18T06:41:14;102688.41;;;14.85;53.26
48517;BME280;34310;51.904;4.256;2022-12-18T06:43:43;102679.16;;;14.88;53.24
48517;BME280;34310;51.904;4.256;2022-12-18T06:46:11;102684.59;;;14.92;53.22
48517;BME280;34310;51.904;4.256;2022-12-18T06:48:39;102675.25;;;14.94;53.10
48517;BME280;34310;51.904;4.256;2022-12-18T06:51:07;102673.66;;;14.96;52.99
48517;BME280;34310;51.904;4.256;2022-12-18T06:53:34;102667.69;;;14.97;52.94
48517;BME280;34310;51.904;4.256;2022-12-18T06:56:02;102664.19;;;14.96;53.01
48517;BME280;34310;51.904;4.256;2022-12-18T06:58:36;102656.38;;;14.96;52.70
48517;BME280;34310;51.904;4.256;2022-12-18T07:01:06;102661.56;;;14.96;52.80
48517;BME280;34310;51.904;4.256;2022-12-18T07:03:34;102650.25;;;14.96;52.84
48517;BME280;34310;51.904;4.256;2022-12-18T07:06:02;102637.13;;;14.94;52.80
48517;BME280;34310;51.904;4.256;2022-12-18T07:08:30;102633.50;;;14.92;52.75
48517;BME280;34310;51.904;4.256;2022-12-18T07:10:57;102629.88;;;14.90;52.82
48517;BME280;34310;51.904;4.256;2022-12-18T07:13:25;102613.13;;;14.86;52.76
48517;BME280;34310;51.904;4.256;2022-12-18T07:15:53;102599.88;;;14.83;52.72
48517;BME280;34310;51.904;4.256;2022-12-18T07:18:21;102601.44;;;14.81;52.77
48517;BME280;34310;51.904;4.256;2022-12-18T07:20:48;102600.41;;;14.79;52.90
48517;BME280;34310;51.904;4.256;2022-12-18T07:23:15;102595.75;;;14.75;52.82
48517;BME280;34310;51.904;4.256;2022-12-18T07:25:43;102591.94;;;14.72;52.77
48517;BME280;34310;51.904;4.256;2022-12-18T07:28:10;102593.53;;;14.70;52.87
48517;BME280;34310;51.904;4.256;2022-12-18T07:30:43;102600.16;;;14.66;52.88
48517;BME280;34310;51.904;4.256;2022-12-18T07:33:10;102603.41;;;14.64;52.87
48517;BME280;34310;51.904;4.256;2022-12-18T07:35:38;102596.94;;;14.59;52.92
48517;BME280;34310;51.904;4.256;2022-12-18T07:38:05;102600.06;;;14.54;52.92
48517;BME280;34310;51.904;4.256;2022-12-18T07:40:33;102619.59;;;14.49;53.13
48517;BME280;34310;51.904;4.256;2022-12-18T07:43:00;102607.59;;;14.41;53.29
48517;BME280;34310;51.904;4.256;2022-12-18T07:45:27;102602.91;;;14.37;53.27
48517;BME280;34310;51.904;4.256;2022-12-18T07:47:54;102599.03;;;14.32;53.42
48517;BME280;34310;51.904;4.256;2022-12-18T07:50:22;102596.19;;;14.29;53.46
48517;BME280;34310;51.904;4.256;2022-12-18T07:52:49;102599.19;;;14.23;53.60
48517;BME280;34310;51.904;4.256;2022-12-18T07:55:16;102597.75;;;14.17;53.66
48517;BME280;34310;51.904;4.256;2022-12-18T07:57:43;102594.63;;;14.11;53.79
48517;BME280;34310;51.904;4.256;2022-12-18T08:00:25;102600.47;;;14.08;53.66
48517;BME280;34310;51.904;4.256;2022-12-18T08:02:52;102590.47;;;14.03;53.89
48517;BME280;34310;51.904;4.256;2022-12-18T08:05:20;102592.03;;;14.01;53.91
48517;BME280;34310;51.904;4.256;2022-12-18T08:07:48;102587.38;;;13.97;53.93
48517;BME280;34310;51.904;4.256;2022-12-18T08:10:15;102582.41;;;14.10;53.68
48517;BME280;34310;51.904;4.256;2022-12-18T08:12:42;102577.09;;;14.18;53.44
48517;BME280;34310;51.904;4.256;2022-12-18T08:15:10;102570.72;;;14.25;53.39
48517;BME280;34310;51.904;4.256;2022-12-18T08:17:37;102582.91;;;14.36;53.53
48517;BME280;34310;51.904;4.256;2022-12-18T08:20:05;102588.16;;;14.46;53.45
48517;BME280;34310;51.904;4.256;2022-12-18T08:22:34;102580.97;;;14.54;53.41
48517;BME280;34310;51.904;4.256;2022-12-18T08:25:03;102590.28;;;14.62;53.41
48517;BME280;34310;51.904;4.256;2022-12-18T08:27:31;102594.19;;;14.67;53.16
48517;BME280;34310;51.904;4.256;2022-12-18T08:29:58;102596.25;;;14.71;53.21
48517;BME280;34310;51.904;4.256;2022-12-18T08:32:27;102599.25;;;14.76;53.18
48517;BME280;34310;51.904;4.256;2022-12-18T08:34:55;102606.38;;;14.78;53.07
48517;BME280;34310;51.904;4.256;2022-12-18T08:37:22;102607.41;;;14.80;53.10
48517;BME280;34310;51.904;4.256;2022-12-18T08:39:49;102614.44;;;14.81;52.93
48517;BME280;34310;51.904;4.256;2022-12-18T08:42:16;102613.66;;;14.82;53.03
48517;BME280;34310;51.904;4.256;2022-12-18T08:45:03;102619.75;;;14.83;53.01
48517;BME280;34310;51.904;4.256;2022-12-18T08:47:30;102624.19;;;14.84;52.88
48517;BME280;34310;51.904;4.256;2022-12-18T08:49:58;102639.78;;;14.84;52.85
48517;BME280;34310;51.904;4.256;2022-12-18T08:52:25;102636.41;;;14.85;52.74
48517;BME280;34310;51.904;4.256;2022-12-18T08:54:52;102637.97;;;14.83;52.72
48517;BME280;34310;51.904;4.256;2022-12-18T08:57:19;102634.19;;;14.79;52.78
48517;BME280;34310;51.904;4.256;2022-12-18T08:59:47;102627.31;;;14.80;52.72
48517;BME280;34310;51.904;4.256;2022-12-18T09:02:15;102615.88;;;14.78;52.60
48517;BME280;34310;51.904;4.256;2022-12-18T09:04:42;102604.44;;;14.76;52.75
48517;BME280;34310;51.904;4.256;2022-12-18T09:07:12;102604.16;;;14.73;52.69
48517;BME280;34310;51.904;4.256;2022-12-18T09:09:40;102593.53;;;14.70;52.72
48517;BME280;34310;51.904;4.256;2022-12-18T09:12:07;102594.19;;;14.67;52.84
48517;BME280;34310;51.904;4.256;2022-12-18T09:14:35;102585.47;;;14.67;52.77
48517;BME280;34310;51.904;4.256;2022-12-18T09:17:02;102568.84;;;14.65;52.64
48517;BME280;34310;51.904;4.256;2022-12-18T09:19:29;102561.59;;;14.61;52.92
48517;BME280;34310;51.904;4.256;2022-12-18T09:21:57;102567.56;;;14.60;52.92
48517;BME280;34310;51.904;4.256;2022-12-18T09:24:24;102569.00;;;14.56;52.75
48517;BME280;34310;51.904;4.256;2022-12-18T09:26:54;102581.88;;;14.54;53.01
48517;BME280;34310;51.904;4.256;2022-12-18T09:29:24;102571.66;;;14.46;53.12
48517;BME280;34310;51.904;4.256;2022-12-18T09:31:51;102574.69;;;14.42;53.12
48517;BME280;34310;51.904;4.256;2022-12-18T09:34:18;102587.31;;;14.37;53.12
48517;BME280;34310;51.904;4.256;2022-12-18T09:36:48;102587.47;;;14.29;53.33
48517;BME280;34310;51.904;4.256;2022-12-18T09:39:16;102587.09;;;14.24;53.43
48517;BME280;34310;51.904;4.256;2022-12-18T09:41:54;102585.69;;;14.17;53.46
48517;BME280;34310;51.904;4.256;2022-12-18T09:44:41;102597.47;;;14.14;53.62
48517;BME280;34310;51.904;4.256;2022-12-18T09:47:30;102598.28;;;14.23;53.47
48517;BME280;34310;51.904;4.256;2022-12-18T09:50:13;102594.88;;;14.34;53.18
48517;BME280;34310;51.904;4.256;2022-12-18T09:52:46;102594.75;;;14.43;53.22
48517;BME280;34310;51.904;4.256;2022-12-18T09:55:28;102585.00;;;14.50;53.10
48517;BME280;34310;51.904;4.256;2022-12-18T10:00:41;102578.56;;;14.67;53.15
48517;BME280;34310;51.904;4.256;2022-12-18T10:03:14;102572.97;;;14.73;53.13
48517;BME280;34310;51.904;4.256;2022-12-18T10:11:29;102551.72;;;14.88;52.87
48517;BME280;34310;51.904;4.256;2022-12-18T10:14:30;102544.16;;;14.92;52.87
48517;BME280;34310;51.904;4.256;2022-12-18T10:17:28;102541.69;;;14.93;52.95
48517;BME280;34310;51.904;4.256;2022-12-18T10:25:24;102537.63;;;14.97;52.91
48517;BME280;34310;51.904;4.256;2022-12-18T10:28:06;102531.53;;;14.96;52.92
48517;BME280;34310;51.904;4.256;2022-12-18T10:30:34;102527.22;;;14.97;52.89
48517;BME280;34310;51.904;4.256;2022-12-18T10:33:04;102536.72;;;14.96;52.66
48517;BME280;34310;51.904;4.256;2022-12-18T10:35:32;102535.16;;;14.98;52.92
48517;BME280;34310;51.904;4.256;2022-12-18T10:41:04;102510.97;;;14.99;52.78
48517;BME280;34310;51.904;4.256;2022-12-18T10:43:38;102518.88;;;15.01;52.78
48517;BME280;34310;51.904;4.256;2022-12-18T10:51:09;102535.03;;;14.97;52.80
48517;BME280;34310;51.904;4.256;2022-12-18T10:53:41;102538.66;;;14.99;52.66
48517;BME280;34310;51.904;4.256;2022-12-18T10:56:10;102529.28;;;15.01;52.63
48517;BME280;34310;51.904;4.256;2022-12-18T10:58:38;102522.50;;;15.03;52.66
48517;BME280;34310;51.904;4.256;2022-12-18T11:01:18;102512.38;;;15.06;52.81
48517;BME280;34310;51.904;4.256;2022-12-18T11:06:28;102504.97;;;15.22;52.73
48517;BME280;34310;51.904;4.256;2022-12-18T11:09:04;102506.47;;;15.30;52.74
48517;BME280;34310;51.904;4.256;2022-12-18T11:11:40;102508.00;;;15.38;52.63
48517;BME280;34310;51.904;4.256;2022-12-18T11:14:20;102511.19;;;15.46;52.52
48517;BME280;34310;51.904;4.256;2022-12-18T11:16:50;102504.75;;;15.53;52.53
48517;BME280;34310;51.904;4.256;2022-12-18T11:19:41;102502.03;;;15.61;52.48
48517;BME280;34310;51.904;4.256;2022-12-18T11:22:33;102489.56;;;15.69;52.32
48517;BME280;34310;51.904;4.256;2022-12-18T11:25:05;102471.81;;;15.75;52.31
48517;BME280;34310;51.904;4.256;2022-12-18T11:30:44;102463.22;;;15.88;52.07
48517;BME280;34310;51.904;4.256;2022-12-18T11:33:18;102452.47;;;15.95;52.04
48517;BME280;34310;51.904;4.256;2022-12-18T11:35:49;102460.75;;;16.01;51.84
48517;BME280;34310;51.904;4.256;2022-12-18T11:38:23;102449.19;;;16.09;51.88
48517;BME280;34310;51.904;4.256;2022-12-18T11:41:16;102450.00;;;16.20;51.59
48517;BME280;34310;51.904;4.256;2022-12-18T11:44:02;102442.84;;;16.29;51.46
48517;BME280;34310;51.904;4.256;2022-12-18T11:46:36;102433.09;;;16.38;51.34
48517;BME280;34310;51.904;4.256;2022-12-18T11:49:20;102429.22;;;16.45;51.16
48517;BME280;34310;51.904;4.256;2022-12-18T11:51:56;102426.97;;;16.49;50.95
48517;BME280;34310;51.904;4.256;2022-12-18T11:54:25;102425.59;;;16.54;50.98
48517;BME280;34310;51.904;4.256;2022-12-18T11:57:22;102424.22;;;16.59;50.89
48517;BME280;34310;51.904;4.256;2022-12-18T12:00:03;102422.97;;;16.66;50.92
48517;BME280;34310;51.904;4.256;2022-12-18T12:05:25;102418.66;;;16.78;50.54
48517;BME280;34310;51.904;4.256;2022-12-18T12:11:11;102402.94;;;16.90;50.58
48517;BME280;34310;51.904;4.256;2022-12-18T12:14:01;102408.59;;;16.96;50.66
48517;BME280;34310;51.904;4.256;2022-12-18T12:19:41;102403.09;;;17.04;50.22
48517;BME280;34310;51.904;4.256;2022-12-18T12:25:47;102392.50;;;17.15;49.79
48517;BME280;34310;51.904;4.256;2022-12-18T12:31:23;102393.34;;;17.27;49.98
48517;BME280;34310;51.904;4.256;2022-12-18T12:39:20;102377.03;;;17.56;49.90
48517;BME280;34310;51.904;4.256;2022-12-18T12:41:49;102370.72;;;17.65;49.68
48517;BME280;34310;51.904;4.256;2022-12-18T12:44:48;102349.66;;;17.76;49.61
48517;BME280;34310;51.904;4.256;2022-12-18T12:47:33;102362.41;;;17.84;49.61
48517;BME280;34310;51.904;4.256;2022-12-18T12:50:06;102368.38;;;17.95;49.61
48517;BME280;34310;51.904;4.256;2022-12-18T12:52:51;102362.72;;;18.02;49.60
48517;BME280;34310;51.904;4.256;2022-12-18T12:55:28;102349.25;;;18.09;49.37
48517;BME280;34310;51.904;4.256;2022-12-18T13:06:43;102332.78;;;18.38;49.22
48517;BME280;34310;51.904;4.256;2022-12-18T13:09:13;102330.56;;;18.44;49.25
48517;BME280;34310;51.904;4.256;2022-12-18T13:11:42;102322.09;;;18.48;49.20
48517;BME280;34310;51.904;4.256;2022-12-18T13:14:42;102315.47;;;18.53;49.01
48517;BME280;34310;51.904;4.256;2022-12-18T13:22:43;102305.38;;;18.60;49.08
48517;BME280;34310;51.904;4.256;2022-12-18T13:25:34;102302.06;;;18.62;48.96
48517;BME280;34310;51.904;4.256;2022-12-18T13:43:26;102270.56;;;18.61;49.29
48517;BME280;34310;51.904;4.256;2022-12-18T13:46:16;102277.50;;;18.60;49.43
48517;BME280;34310;51.904;4.256;2022-12-18T13:48:55;102272.16;;;18.58;49.73
48517;BME280;34310;51.904;4.256;2022-12-18T13:51:24;102268.66;;;18.58;49.12
48517;BME280;34310;51.904;4.256;2022-12-18T13:56:49;102250.97;;;18.54;49.68
48517;BME280;34310;51.904;4.256;2022-12-18T13:59:24;102244.75;;;18.52;49.31
48517;BME280;34310;51.904;4.256;2022-12-18T14:01:55;102244.66;;;18.50;49.15
48517;BME280;34310;51.904;4.256;2022-12-18T14:04:25;102244.44;;;18.47;49.61
48517;BME280;34310;51.904;4.256;2022-12-18T14:06:57;102247.84;;;18.46;49.54
48517;BME280;34310;51.904;4.256;2022-12-18T14:09:29;102240.81;;;18.45;49.61
48517;BME280;34310;51.904;4.256;2022-12-18T14:11:58;102234.78;;;18.46;49.54
48517;BME280;34310;51.904;4.256;2022-12-18T14:14:47;102231.44;;;18.49;49.58
48517;BME280;34310;51.904;4.256;2022-12-18T14:17:18;102219.66;;;18.55;49.34
48517;BME280;34310;51.904;4.256;2022-12-18T14:19:49;102214.81;;;18.62;48.94
48517;BME280;34310;51.904;4.256;2022-12-18T14:22:20;102209.16;;;18.69;49.41
48517;BME280;34310;51.904;4.256;2022-12-18T14:25:04;102202.47;;;18.74;49.31
48517;BME280;34310;51.904;4.256;2022-12-18T14:27:31;102202.88;;;18.80;48.73
48517;BME280;34310;51.904;4.256;2022-12-18T14:29:58;102202.22;;;18.84;49.06
48517;BME280;34310;51.904;4.256;2022-12-18T14:32:26;102193.91;;;18.91;48.58
48517;BME280;34310;51.904;4.256;2022-12-18T14:34:54;102195.91;;;18.95;48.66
48517;BME280;34310;51.904;4.256;2022-12-18T14:37:24;102191.00;;;19.01;48.58
48517;BME280;34310;51.904;4.256;2022-12-18T14:39:59;102192.19;;;19.06;48.72
48517;BME280;34310;51.904;4.256;2022-12-18T14:42:37;102174.75;;;19.07;47.96
48517;BME280;34310;51.904;4.256;2022-12-18T14:48:35;102183.63;;;19.09;48.03
48517;BME280;34310;51.904;4.256;2022-12-18T14:53:48;102169.63;;;19.08;48.68
48517;BME280;34310;51.904;4.256;2022-12-18T14:56:24;102179.09;;;19.06;48.75
48517;BME280;34310;51.904;4.256;2022-12-18T14:59:04;102182.53;;;19.05;48.55
48517;BME280;34310;51.904;4.256;2022-12-18T15:01:35;102186.75;;;19.03;48.23
48517;BME280;34310;51.904;4.256;2022-12-18T15:04:05;102183.16;;;19.01;48.59
48517;BME280;34310;51.904;4.256;2022-12-18T15:07:24;102182.09;;;18.98;47.93
48517;BME280;34310;51.904;4.256;2022-12-18T15:12:43;102178.22;;;18.91;47.43
48517;BME280;34310;51.904;4.256;2022-12-18T15:18:02;102176.16;;;18.85;47.59
48517;BME280;34310;51.904;4.256;2022-12-18T15:26:14;102175.53;;;18.32;45.05
48517;BME280;34310;51.904;4.256;2022-12-18T15:28:50;102169.44;;;18.04;46.14
48517;BME280;34310;51.904;4.256;2022-12-18T15:31:28;102166.56;;;17.86;44.65
48517;BME280;34310;51.904;4.256;2022-12-18T15:36:24;102168.34;;;18.00;46.74